Scroll down
FLIGHT INFORMATION
PMDG Flight Operations

PFO24

At Arrival Gate

KLAX
 ZBAA
DATE: 2018-08-24
GATE:  -
GATE DEPARTURE: 05:47
TAKEOFF: 06:02
DATE: 2018-08-24
GATE:  -
LANDING: 18:24
GATE ARRIVAL: 18:36
FLIGHT DATA
Crew: 
Speed: 
519 kts
Altitude: 
38,013 ft
Stage Length: 
5,419.5 nm
Block Time: 
12.8 hrs
Flight Time: 
12.4 hrs
Fuel Used: 
246,438 lb
Cleared Route: 
TRACK DATA
50,000 ft 1,000 kts
AIRCRAFT INFO AND CUMULATIVE STATS
Aircraft Type: 
B748F
Registration: 
SELCAL: 
MSN/LN: 
0 / 2
Total Flights: 
6
Total Block Time: 
52.1 hrs
Total Flight Time: 
50.7 hrs
Total Fuel Time: 
1,013,403 lb
DATALINK LOG | Newest first | Current as of: 2021-01-25 10:03:58
LABEL SEQUENCE CONTENT Dn/Up
QD364218:36 19.4▼ Dn
QC242818:24▼ Dn
GA5859ADVANCED GATE ASSIGNMENTS NOT YET AVAILABLE AT THIS AIRPORT▲ Up
GR5548ZBAA▼ Dn
2U5859ZBAA 241730Z 03002MPS CAVOK 21/19 Q1007 NOSIG▲ Up
2S5542ZBAA▼ Dn
2U4148ZBAA 241730Z 03002MPS CAVOK 21/19 Q1007 NOSIG▲ Up
2S3926ZBAA▼ Dn
462444/OV LUSAK /TM 1524 /FL360 /TP B748 /SK SCT /TA -14 /WV 298/76 /RM DARK OUTSIDE▼ Dn
5U2536TAF ZBAA 240930Z 2412/2512 01004MPS CAVOK TX31/2507Z TN20/2421Z▲ Up
5S2319ZBAA▼ Dn
2U2536ZBAA 241500Z VRB01MPS CAVOK 22/19 Q1007 NOSIG▲ Up
2S2315ZBAA▼ Dn
QB021206:02▼ Dn
5U5720TAF ZBAA 232130Z 2400/2424 03004MPS CAVOK TX32/2406Z TN19/2420Z▲ Up
5S5545ZBAA▼ Dn
QA470105:47 266▼ Dn
2U4811KLAX 240453Z 25007KT 8SM FEW014 21/18 A2997 RMK AO2 SLP145 T02110178 $▲ Up
2S4643KLAX▼ Dn


AIRCRAFT HISTORY
FLIGHT DATE FLIGHT NO. ORIGIN DESTINATION CLEARED ROUTE BLOCK TIME FLIGHT TIME FUEL USED PILOT
2018-08-24PFO24KLAX ZBAA 12.8 hrs12.4 hrs246,438 lbMichael Roth
2018-08-23PFO23KIAD KLAX 4.9 hrs4.7 hrs96,956 lbMichael Roth
2018-08-20PFO1204KSFO KIAD 4.9 hrs4.4 hrs94,882 lbMark Adeane
2018-08-19PFO3265YSSY KSFO 13.2 hrs12.9 hrs285,878 lbMark Adeane
2018-08-04PFO804KLAX YSSY 14.5 hrs14.2 hrs250,945 lbKyle Rodgers
2018-08-04PFO804KPAE KLAX 2.4 hrs2.1 hrs38,304 lbKyle Rodgers